Ornslund, Denmark
Current Conditions -  °F | °C
As of 6:50 AM on Saturday 29 Nov 2014 (Local Time) from EKOD Reporting Station
Broken Clouds Broken Clouds  
Wind Chill: 28°   Ceiling: 2100
Heat Index: 37°   Visibility: 6mi
Dew Point: 34°   Wind: 16mph
Humidity: 87%   Direction: 100°E
Pressure: 30.24"   Gusts: NA
Location:  55.7°N, 10.6°E
Report Text: EKOD 290550Z 10014KT 9999 BKN021 BKN025 03/01 Q1024
Loading
Personal Weather Stations






























Interactive Weather Map New forecast layout! Learn more

10-Day Weather Forecast

Advertisements
Track Severe Weather on mobile